createdAt,value
2018-03-08T00:01:03.752Z,92.22
2018-03-08T00:03:31.378Z,92.17
2018-03-08T00:05:58.973Z,91.85
2018-03-08T00:08:26.594Z,91.63
2018-03-08T00:10:54.170Z,91.64
2018-03-08T00:13:21.848Z,90.94
2018-03-08T00:15:49.481Z,90.41
2018-03-08T00:18:17.082Z,90.67
2018-03-08T00:20:44.737Z,90.63
2018-03-08T00:23:12.318Z,90.64
2018-03-08T00:25:39.935Z,91.96
2018-03-08T00:28:07.570Z,91.50
2018-03-08T00:30:35.157Z,91.45
2018-03-08T00:33:02.841Z,91.36
2018-03-08T00:35:30.449Z,91.26
2018-03-08T00:37:58.170Z,91.26
2018-03-08T00:40:25.809Z,91.74
2018-03-08T00:42:53.445Z,91.82
2018-03-08T00:45:21.034Z,91.53
2018-03-08T00:47:48.676Z,91.10
2018-03-08T00:50:16.361Z,91.09
2018-03-08T00:52:43.973Z,91.14
2018-03-08T00:55:11.545Z,91.23
2018-03-08T00:57:39.184Z,91.09
2018-03-08T01:00:06.822Z,91.39
2018-03-08T01:02:34.418Z,91.37
2018-03-08T01:05:02.037Z,91.64
2018-03-08T01:07:29.706Z,91.99
2018-03-08T01:09:57.401Z,92.11
2018-03-08T01:12:25.107Z,92.21
2018-03-08T01:14:52.810Z,92.49
2018-03-08T01:17:20.433Z,92.02
2018-03-08T01:19:48.007Z,91.81
2018-03-08T01:22:15.707Z,92.03
2018-03-08T01:24:43.371Z,92.76
2018-03-08T01:27:10.981Z,93.07
2018-03-08T01:29:38.667Z,91.70
2018-03-08T01:32:06.255Z,91.30
2018-03-08T01:34:34.276Z,91.63
2018-03-08T01:37:01.912Z,90.97
2018-03-08T01:39:29.726Z,90.46
2018-03-08T01:41:57.328Z,91.29
2018-03-08T01:44:24.966Z,90.75
2018-03-08T01:46:52.558Z,90.50
2018-03-08T01:49:20.217Z,91.20
2018-03-08T01:51:59.703Z,91.13
2018-03-08T01:54:27.300Z,91.47
2018-03-08T01:56:54.967Z,91.64
2018-03-08T01:59:22.588Z,91.60
2018-03-08T02:01:50.245Z,91.67
2018-03-08T02:04:17.836Z,91.36
2018-03-08T02:06:45.749Z,91.52
2018-03-08T02:09:13.475Z,91.70
2018-03-08T02:11:41.059Z,91.79
2018-03-08T02:14:08.706Z,91.65
2018-03-08T02:16:36.324Z,91.57
2018-03-08T02:19:03.973Z,91.85
2018-03-08T02:21:31.577Z,91.96
2018-03-08T02:23:59.231Z,92.05
2018-03-08T02:26:27.028Z,91.91
2018-03-08T02:28:54.676Z,91.81
2018-03-08T02:31:22.254Z,91.80
2018-03-08T02:33:49.881Z,91.80
2018-03-08T02:36:17.516Z,92.04
2018-03-08T02:38:45.126Z,91.98
2018-03-08T02:41:12.754Z,91.77
2018-03-08T02:43:40.381Z,92.28
2018-03-08T02:46:08.017Z,92.23
2018-03-08T02:48:35.668Z,91.90
2018-03-08T02:51:03.401Z,91.80
2018-03-08T02:53:31.005Z,91.81
2018-03-08T02:55:58.731Z,92.28
2018-03-08T02:58:26.368Z,92.38
2018-03-08T03:00:53.947Z,92.36
2018-03-08T03:03:21.593Z,92.11
2018-03-08T03:05:49.206Z,92.06
2018-03-08T03:08:16.804Z,92.01
2018-03-08T03:10:44.448Z,91.99
2018-03-08T03:13:12.154Z,91.92
2018-03-08T03:15:39.804Z,91.88
2018-03-08T03:18:07.420Z,91.87
2018-03-08T03:20:35.044Z,93.02
2018-03-08T03:23:02.680Z,93.05
2018-03-08T03:25:30.301Z,92.47
2018-03-08T03:27:57.930Z,92.15
2018-03-08T03:30:25.592Z,91.86
2018-03-08T03:32:53.278Z,92.38
2018-03-08T03:35:20.862Z,92.51
2018-03-08T03:37:48.528Z,93.26
2018-03-08T03:40:16.142Z,92.84
2018-03-08T03:42:43.789Z,92.52
2018-03-08T03:45:11.449Z,92.38
2018-03-08T03:47:39.025Z,92.59
2018-03-08T03:50:06.667Z,92.24
2018-03-08T03:52:34.248Z,92.06
2018-03-08T03:55:01.906Z,92.22
2018-03-08T03:57:29.562Z,91.93
2018-03-08T03:59:57.183Z,92.24
2018-03-08T04:02:24.847Z,92.14
2018-03-08T04:04:52.541Z,91.89
2018-03-08T04:07:20.188Z,92.06
2018-03-08T04:09:47.851Z,92.20
2018-03-08T04:12:15.487Z,92.68
2018-03-08T04:14:43.142Z,92.86
2018-03-08T04:17:10.787Z,92.61
2018-03-08T04:19:39.293Z,92.71
2018-03-08T04:22:06.877Z,92.90
2018-03-08T04:24:34.504Z,92.51
2018-03-08T04:27:02.101Z,92.32
2018-03-08T04:29:29.760Z,92.48
2018-03-08T04:31:57.372Z,93.42
2018-03-08T04:34:24.963Z,93.67
2018-03-08T04:36:52.616Z,93.13
2018-03-08T04:39:20.273Z,92.74
2018-03-08T04:41:47.957Z,92.84
2018-03-08T04:44:15.671Z,93.35
2018-03-08T04:46:43.296Z,93.37
2018-03-08T04:49:10.936Z,93.47
2018-03-08T04:51:38.558Z,93.39
2018-03-08T04:54:06.265Z,93.46
2018-03-08T04:56:33.939Z,93.13
2018-03-08T04:59:01.593Z,93.20
2018-03-08T05:01:29.216Z,93.75
2018-03-08T05:03:56.871Z,93.06
2018-03-08T05:06:24.592Z,93.04
2018-03-08T05:08:52.242Z,93.01
2018-03-08T05:11:19.844Z,93.13
2018-03-08T05:13:47.468Z,93.57
2018-03-08T05:16:15.132Z,94.07
2018-03-08T05:18:42.841Z,93.73
2018-03-08T05:21:10.534Z,93.49
2018-03-08T05:23:38.116Z,93.21
2018-03-08T05:26:05.795Z,93.17
2018-03-08T05:28:33.427Z,93.07
2018-03-08T05:31:01.097Z,93.18
2018-03-08T05:33:28.677Z,93.77
2018-03-08T05:35:56.530Z,93.50
2018-03-08T05:38:24.128Z,92.91
2018-03-08T05:40:51.789Z,93.55
2018-03-08T05:43:19.392Z,93.28
2018-03-08T05:45:47.050Z,93.42
2018-03-08T05:48:14.988Z,93.23
2018-03-08T05:50:43.674Z,93.17
2018-03-08T05:53:11.335Z,92.86
2018-03-08T05:55:38.948Z,92.71
2018-03-08T05:58:06.583Z,92.61
2018-03-08T06:00:34.235Z,92.59
2018-03-08T06:03:01.909Z,92.66
2018-03-08T06:05:29.489Z,92.63
2018-03-08T06:07:57.102Z,92.60
2018-03-08T06:10:24.725Z,92.70
2018-03-08T06:12:52.392Z,92.68
2018-03-08T06:15:20.016Z,92.76
2018-03-08T06:17:47.607Z,92.38
2018-03-08T06:20:15.246Z,91.82
2018-03-08T06:22:42.866Z,91.48
2018-03-08T06:25:11.327Z,92.05
2018-03-08T06:27:39.085Z,92.10
2018-03-08T06:30:07.312Z,91.54
2018-03-08T06:32:34.968Z,91.39
2018-03-08T06:35:02.603Z,91.96
2018-03-08T06:37:31.289Z,91.49
2018-03-08T06:39:58.976Z,91.38
2018-03-08T06:42:26.685Z,91.51
2018-03-08T06:44:54.272Z,91.50
2018-03-08T06:47:21.945Z,91.83
2018-03-08T06:49:49.570Z,92.28
2018-03-08T06:52:17.231Z,92.51
2018-03-08T06:54:44.842Z,92.48
2018-03-08T06:57:12.521Z,92.13
2018-03-08T06:59:40.140Z,92.27
2018-03-08T07:02:07.841Z,92.41
2018-03-08T07:04:35.493Z,92.69
2018-03-08T07:07:03.160Z,92.59
2018-03-08T07:09:30.841Z,92.71
2018-03-08T07:11:58.509Z,92.41
2018-03-08T07:14:26.142Z,91.92
2018-03-08T07:16:53.816Z,91.14
2018-03-08T07:19:21.420Z,90.72
2018-03-08T07:21:49.103Z,90.13
2018-03-08T07:24:16.759Z,89.74
2018-03-08T07:26:44.431Z,89.14
2018-03-08T07:29:12.052Z,89.54
2018-03-08T07:31:39.760Z,88.21
2018-03-08T07:34:07.442Z,87.10
2018-03-08T07:36:35.108Z,87.34
2018-03-08T07:39:02.929Z,88.65
2018-03-08T07:41:30.570Z,88.96
2018-03-08T07:43:59.164Z,89.27
2018-03-08T07:46:26.834Z,89.23
2018-03-08T07:48:54.541Z,89.11
2018-03-08T07:51:22.170Z,87.94
2018-03-08T07:53:49.792Z,88.79
2018-03-08T07:56:17.444Z,87.86
2018-03-08T07:58:45.118Z,88.06
2018-03-08T08:01:12.797Z,87.94
2018-03-08T08:03:40.490Z,84.56
2018-03-08T08:06:20.974Z,83.10
2018-03-08T08:09:00.286Z,81.57
2018-03-08T08:11:27.947Z,75.79
2018-03-08T08:13:55.567Z,72.87
2018-03-08T08:16:23.240Z,73.66
2018-03-08T08:18:50.893Z,73.14
2018-03-08T08:21:18.544Z,72.10
2018-03-08T08:23:46.256Z,71.73
2018-03-08T08:26:13.918Z,70.46
2018-03-08T08:28:41.509Z,68.74
2018-03-08T08:31:09.185Z,68.21
2018-03-08T08:33:36.816Z,66.65
2018-03-08T08:36:04.458Z,72.05
2018-03-08T08:38:32.099Z,72.55
2018-03-08T08:40:59.736Z,67.70
2018-03-08T08:43:27.375Z,69.63
2018-03-08T08:45:55.044Z,70.96
2018-03-08T08:48:22.644Z,72.18
2018-03-08T08:50:51.284Z,72.84
2018-03-08T08:53:18.887Z,70.85
2018-03-08T08:55:46.520Z,72.67
2018-03-08T08:58:14.172Z,73.74
2018-03-08T09:00:41.872Z,73.43
2018-03-08T09:03:09.603Z,74.20
2018-03-08T09:05:37.296Z,74.01
2018-03-08T09:08:04.983Z,73.37
2018-03-08T09:10:32.637Z,73.75
2018-03-08T09:13:00.236Z,73.62
2018-03-08T09:15:27.927Z,71.46
2018-03-08T09:17:55.568Z,68.19
2018-03-08T09:20:23.188Z,65.92
2018-03-08T09:22:50.846Z,63.04
2018-03-08T09:25:18.460Z,68.45
2018-03-08T09:27:46.120Z,71.81
2018-03-08T09:30:13.746Z,68.78
2018-03-08T09:32:41.420Z,65.75
2018-03-08T09:35:09.013Z,66.66
2018-03-08T09:37:36.672Z,60.30
2018-03-08T09:40:04.285Z,58.83
2018-03-08T09:42:31.915Z,60.81
2018-03-08T09:44:59.552Z,60.81
2018-03-08T09:47:27.193Z,57.26
2018-03-08T09:49:54.890Z,57.24
2018-03-08T09:52:22.524Z,57.98
2018-03-08T09:54:50.162Z,59.32
2018-03-08T09:57:17.759Z,60.65
2018-03-08T09:59:45.410Z,58.75
2018-03-08T10:02:13.052Z,57.25
2018-03-08T10:04:40.699Z,52.13
2018-03-08T10:07:08.317Z,52.78
2018-03-08T10:09:36.017Z,49.97
2018-03-08T10:12:03.652Z,49.60
2018-03-08T10:14:31.307Z,49.15
2018-03-08T10:16:59.714Z,49.09
2018-03-08T10:19:27.384Z,48.53
2018-03-08T10:21:55.043Z,50.92
2018-03-08T10:24:22.745Z,49.83
2018-03-08T10:26:50.513Z,50.29
2018-03-08T10:29:18.155Z,50.08
2018-03-08T10:31:45.835Z,49.07
2018-03-08T10:34:13.485Z,51.21
2018-03-08T10:36:41.093Z,47.77
2018-03-08T10:44:04.677Z,49.33
2018-03-08T10:46:32.292Z,48.06
2018-03-08T10:51:27.564Z,48.53
2018-03-08T10:53:55.206Z,47.43
2018-03-08T10:56:23.175Z,48.08
2018-03-08T10:58:50.752Z,47.92
2018-03-08T11:01:23.969Z,47.10
2018-03-08T11:03:55.534Z,48.24
2018-03-08T11:06:29.093Z,46.20
2018-03-08T11:08:56.758Z,44.04
2018-03-08T11:11:24.447Z,44.99
2018-03-08T11:13:52.380Z,46.12
2018-03-08T11:16:20.036Z,46.98
2018-03-08T11:18:47.624Z,46.75
2018-03-08T11:21:15.289Z,47.67
2018-03-08T11:23:42.906Z,44.90
2018-03-08T11:26:10.537Z,45.54
2018-03-08T11:28:38.576Z,44.31
2018-03-08T11:31:06.442Z,43.02
2018-03-08T11:33:34.086Z,44.37
2018-03-08T11:36:01.750Z,41.75
2018-03-08T11:38:29.387Z,43.13
2018-03-08T11:40:56.983Z,44.70
2018-03-08T11:43:24.696Z,41.44
2018-03-08T11:45:53.308Z,43.58
2018-03-08T11:48:20.998Z,38.97
2018-03-08T11:50:48.632Z,43.10
2018-03-08T11:53:16.275Z,42.24
2018-03-08T11:55:44.077Z,39.21
2018-03-08T11:58:12.160Z,43.79
2018-03-08T12:00:39.807Z,40.05
2018-03-08T12:03:07.484Z,43.01
2018-03-08T12:05:35.322Z,43.79
2018-03-08T12:08:03.535Z,41.48
2018-03-08T12:10:31.496Z,39.22
2018-03-08T12:12:59.130Z,40.26
2018-03-08T12:15:26.926Z,41.95
2018-03-08T12:17:54.617Z,42.75
2018-03-08T12:20:22.349Z,40.77
2018-03-08T12:22:50.012Z,40.08
2018-03-08T12:25:17.864Z,38.94
2018-03-08T12:27:45.634Z,38.82
2018-03-08T12:30:13.390Z,40.25
2018-03-08T12:32:41.173Z,40.83
2018-03-08T12:35:08.923Z,41.75
2018-03-08T12:37:36.654Z,42.05
2018-03-08T12:40:07.356Z,40.51
2018-03-08T12:42:35.579Z,37.73
2018-03-08T12:45:03.575Z,38.76
2018-03-08T12:47:31.653Z,37.52
2018-03-08T12:49:59.563Z,40.58
2018-03-08T12:52:27.171Z,40.91
2018-03-08T12:54:54.999Z,40.00
2018-03-08T12:57:22.604Z,39.92
2018-03-08T12:59:50.322Z,38.39
2018-03-08T13:02:18.652Z,38.93
2018-03-08T13:04:46.517Z,39.08
2018-03-08T13:07:14.488Z,38.62
2018-03-08T13:09:42.240Z,38.92
2018-03-08T13:12:09.877Z,38.16
2018-03-08T13:14:38.075Z,37.25
2018-03-08T13:17:05.736Z,38.00
2018-03-08T13:19:33.361Z,37.52
2018-03-08T13:22:01.010Z,36.42
2018-03-08T13:24:28.593Z,37.53
2018-03-08T13:26:56.249Z,38.83
2018-03-08T13:29:23.915Z,39.68
2018-03-08T13:31:51.532Z,40.75
2018-03-08T13:34:19.189Z,38.30
2018-03-08T13:36:46.889Z,39.83
2018-03-08T13:39:14.565Z,40.65
2018-03-08T13:41:42.225Z,38.33
2018-03-08T13:44:09.894Z,41.08
2018-03-08T13:46:37.557Z,40.83
2018-03-08T13:49:16.849Z,39.43
2018-03-08T13:51:44.696Z,37.84
2018-03-08T13:54:12.287Z,36.89
2018-03-08T13:56:39.955Z,36.75
2018-03-08T13:59:07.560Z,39.64
2018-03-08T14:01:36.042Z,42.50
2018-03-08T14:04:03.816Z,38.81
2018-03-08T14:06:31.458Z,40.58
2018-03-08T14:08:59.167Z,40.38
2018-03-08T14:11:26.854Z,40.87
2018-03-08T14:13:54.565Z,41.46
2018-03-08T14:16:22.253Z,41.65
2018-03-08T14:18:50.097Z,42.85
2018-03-08T14:21:18.031Z,44.21
2018-03-08T14:23:45.945Z,43.79
2018-03-08T14:26:13.873Z,43.20
2018-03-08T14:28:41.669Z,42.35
2018-03-08T14:31:09.278Z,42.48
2018-03-08T14:33:36.990Z,43.31
2018-03-08T14:36:04.864Z,42.02
2018-03-08T14:38:32.928Z,41.46
2018-03-08T14:41:01.016Z,40.62
2018-03-08T14:43:30.345Z,41.52
2018-03-08T14:45:58.212Z,41.62
2018-03-08T14:48:26.258Z,41.48
2018-03-08T14:50:55.212Z,41.80
2018-03-08T14:53:23.217Z,41.52
2018-03-08T14:55:51.136Z,42.27
2018-03-08T14:58:19.194Z,42.32
2018-03-08T15:00:47.033Z,42.77
2018-03-08T15:03:15.916Z,45.36
2018-03-08T15:05:43.784Z,47.95
2018-03-08T15:08:11.656Z,49.40
2018-03-08T15:10:39.724Z,50.01
2018-03-08T15:13:08.004Z,50.76
2018-03-08T15:15:36.135Z,51.61
2018-03-08T15:18:04.012Z,51.77
2018-03-08T15:20:32.013Z,51.75
2018-03-08T15:23:00.383Z,54.09
2018-03-08T15:25:28.555Z,53.90
2018-03-08T15:27:56.659Z,56.10
2018-03-08T15:30:24.507Z,56.56
2018-03-08T15:32:52.511Z,56.21
2018-03-08T15:35:20.626Z,58.38
2018-03-08T15:37:49.439Z,58.32
2018-03-08T15:40:18.359Z,58.28
2018-03-08T15:42:47.179Z,57.42
2018-03-08T15:45:15.904Z,59.00
2018-03-08T15:47:44.804Z,59.51
2018-03-08T15:50:12.674Z,58.40
2018-03-08T15:52:40.422Z,57.46
2018-03-08T15:55:08.283Z,57.86
2018-03-08T15:57:36.729Z,57.28
2018-03-08T16:00:04.699Z,59.35
2018-03-08T16:02:34.353Z,59.52
2018-03-08T16:05:02.378Z,60.36
2018-03-08T16:10:38.203Z,62.00
2018-03-08T16:13:05.876Z,61.73
2018-03-08T16:15:33.560Z,61.42
2018-03-08T16:18:01.757Z,63.79
2018-03-08T16:20:29.863Z,64.28
2018-03-08T16:22:57.506Z,64.75
2018-03-08T16:25:25.295Z,64.56
2018-03-08T16:27:55.480Z,65.39
2018-03-08T16:30:24.019Z,65.73
2018-03-08T16:32:51.768Z,66.22
2018-03-08T16:35:19.633Z,66.74
2018-03-08T16:37:47.715Z,67.12
2018-03-08T16:40:15.747Z,67.50
2018-03-08T16:42:43.739Z,68.62
2018-03-08T16:45:11.819Z,69.72
2018-03-08T16:47:39.789Z,70.28
2018-03-08T16:50:07.761Z,69.50
2018-03-08T16:52:35.631Z,69.91
2018-03-08T16:55:03.669Z,70.23
2018-03-08T16:57:31.315Z,70.97
2018-03-08T16:59:59.292Z,71.07
2018-03-08T17:02:27.403Z,70.93
2018-03-08T17:04:55.413Z,71.32
2018-03-08T17:07:23.611Z,71.90
2018-03-08T17:09:51.474Z,72.87
2018-03-08T17:12:19.588Z,73.10
2018-03-08T17:14:47.686Z,73.22
2018-03-08T17:17:16.350Z,72.96
2018-03-08T17:19:44.622Z,71.66
2018-03-08T17:22:12.797Z,72.33
2018-03-08T17:24:40.871Z,72.59
2018-03-08T17:27:10.890Z,72.79
2018-03-08T17:29:39.676Z,73.05
2018-03-08T17:32:08.995Z,72.79
2018-03-08T17:34:36.822Z,73.54
2018-03-08T17:37:04.961Z,73.76
2018-03-08T17:39:33.722Z,73.58
2018-03-08T17:42:01.689Z,73.70
2018-03-08T17:44:30.341Z,73.54
2018-03-08T17:46:58.172Z,74.42
2018-03-08T17:49:26.161Z,74.09
2018-03-08T17:51:54.025Z,74.71
2018-03-08T17:54:22.178Z,74.92
2018-03-08T17:56:50.138Z,75.54
2018-03-08T17:59:18.911Z,75.86
2018-03-08T18:01:46.947Z,75.82
2018-03-08T18:04:14.546Z,76.47
2018-03-08T18:06:42.308Z,76.26
2018-03-08T18:09:10.210Z,76.02
2018-03-08T18:11:38.126Z,76.10
2018-03-08T18:14:11.475Z,75.40
2018-03-08T18:16:45.153Z,74.62
2018-03-08T18:19:13.179Z,75.04
2018-03-08T18:21:41.642Z,76.12
2018-03-08T18:24:10.158Z,76.66
2018-03-08T18:26:37.911Z,76.98
2018-03-08T18:29:06.669Z,76.90
2018-03-08T18:31:34.396Z,76.92
2018-03-08T18:34:02.088Z,77.82
2018-03-08T18:36:30.317Z,78.21
2018-03-08T18:38:58.211Z,78.65
2018-03-08T18:41:25.954Z,79.09
2018-03-08T18:43:53.917Z,77.59
2018-03-08T18:46:21.606Z,77.52
2018-03-08T18:48:49.903Z,78.35
2018-03-08T18:51:17.826Z,78.81
2018-03-08T18:53:45.742Z,78.64
2018-03-08T18:56:13.456Z,79.15
2018-03-08T18:58:41.543Z,79.13
2018-03-08T19:01:09.239Z,79.92
2018-03-08T19:03:37.133Z,79.46
2018-03-08T19:06:05.232Z,80.54
2018-03-08T19:08:33.268Z,79.39
2018-03-08T19:11:01.293Z,79.06
2018-03-08T19:13:30.292Z,78.27
2018-03-08T19:15:58.138Z,78.37
2018-03-08T19:18:26.206Z,79.66
2018-03-08T19:20:54.279Z,79.36
2018-03-08T19:23:22.629Z,79.18
2018-03-08T19:25:50.623Z,79.47
2018-03-08T19:28:18.702Z,79.90
2018-03-08T19:30:46.521Z,80.17
2018-03-08T19:33:14.857Z,80.42
2018-03-08T19:35:42.697Z,79.73
2018-03-08T19:38:10.745Z,80.39
2018-03-08T19:40:38.645Z,80.88
2018-03-08T19:43:06.505Z,80.55
2018-03-08T19:45:35.173Z,81.32
2018-03-08T19:48:03.321Z,81.21
2018-03-08T19:50:31.386Z,80.65
2018-03-08T19:52:59.424Z,79.69
2018-03-08T19:55:27.297Z,79.43
2018-03-08T19:57:55.007Z,79.85
2018-03-08T20:00:22.639Z,80.22
2018-03-08T20:02:51.384Z,79.96
2018-03-08T20:05:19.109Z,80.52
2018-03-08T20:07:46.768Z,80.88
2018-03-08T20:10:14.439Z,80.78
2018-03-08T20:12:42.095Z,79.86
2018-03-08T20:15:09.738Z,80.09
2018-03-08T20:17:37.478Z,80.47
2018-03-08T20:20:05.353Z,81.14
2018-03-08T20:22:33.055Z,82.98
2018-03-08T20:25:01.740Z,82.48
2018-03-08T20:27:29.393Z,81.55
2018-03-08T20:29:57.190Z,81.04
2018-03-08T20:32:24.823Z,80.98
2018-03-08T20:34:53.445Z,80.48
2018-03-08T20:37:21.086Z,80.74
2018-03-08T20:39:48.710Z,81.50
2018-03-08T20:42:16.410Z,82.46
2018-03-08T20:44:44.079Z,82.66
2018-03-08T20:47:12.218Z,82.39
2018-03-08T20:49:39.860Z,82.99
2018-03-08T20:52:07.545Z,83.44
2018-03-08T20:54:35.197Z,82.77
2018-03-08T20:57:03.773Z,82.45
2018-03-08T20:59:31.381Z,84.51
2018-03-08T21:01:59.083Z,83.23
2018-03-08T21:04:26.737Z,82.32
2018-03-08T21:06:54.392Z,82.06
2018-03-08T21:09:21.988Z,81.73
2018-03-08T21:11:49.670Z,84.06
2018-03-08T21:14:17.278Z,83.74
2018-03-08T21:16:44.948Z,82.36
2018-03-08T21:19:12.663Z,83.97
2018-03-08T21:21:42.430Z,83.10
2018-03-08T21:24:10.290Z,83.75
2018-03-08T21:26:38.774Z,84.63
2018-03-08T21:29:06.527Z,84.02
2018-03-08T21:31:34.493Z,83.63
2018-03-08T21:34:02.443Z,83.17
2018-03-08T21:36:30.025Z,83.69
2018-03-08T21:38:57.728Z,83.48
2018-03-08T21:41:25.404Z,82.50
2018-03-08T21:43:53.058Z,83.20
2018-03-08T21:46:20.784Z,83.07
2018-03-08T21:48:49.111Z,83.11
2018-03-08T21:51:16.745Z,83.74
2018-03-08T21:53:45.460Z,83.16
2018-03-08T21:56:13.276Z,83.35
2018-03-08T21:58:41.636Z,83.13
2018-03-08T22:01:09.845Z,83.51
2018-03-08T22:03:38.137Z,84.18
2018-03-08T22:06:06.501Z,83.83
2018-03-08T22:08:34.668Z,83.20
2018-03-08T22:11:02.951Z,84.10
2018-03-08T22:13:30.953Z,84.52
2018-03-08T22:15:59.123Z,84.43
2018-03-08T22:18:27.189Z,84.35
2018-03-08T22:20:55.613Z,83.73
2018-03-08T22:23:23.686Z,83.83
2018-03-08T22:25:52.361Z,84.32
2018-03-08T22:28:20.616Z,84.22
2018-03-08T22:30:48.826Z,83.56
2018-03-08T22:33:17.059Z,82.24
2018-03-08T22:35:45.218Z,82.94
2018-03-08T22:38:13.523Z,82.52
2018-03-08T22:40:41.331Z,83.69
2018-03-08T22:43:09.015Z,84.45
2018-03-08T22:45:36.645Z,84.75
2018-03-08T22:48:04.268Z,84.17
2018-03-08T22:50:31.943Z,84.02
2018-03-08T22:52:59.550Z,83.82
2018-03-08T22:55:27.155Z,84.50
2018-03-08T22:57:54.863Z,85.04
2018-03-08T23:00:22.564Z,84.75
2018-03-08T23:02:50.220Z,85.82
2018-03-08T23:05:17.895Z,84.59
2018-03-08T23:07:45.539Z,84.35
2018-03-08T23:10:13.294Z,84.28
2018-03-08T23:12:41.186Z,85.19
2018-03-08T23:15:08.807Z,84.82
2018-03-08T23:17:36.454Z,84.47
2018-03-08T23:20:04.081Z,84.06
2018-03-08T23:22:31.665Z,83.75
2018-03-08T23:24:59.315Z,83.59
2018-03-08T23:27:26.984Z,84.73
2018-03-08T23:29:54.589Z,84.85
2018-03-08T23:32:22.249Z,84.83
2018-03-08T23:34:50.114Z,84.96
2018-03-08T23:37:17.760Z,84.49
2018-03-08T23:39:46.046Z,84.04
2018-03-08T23:42:14.736Z,83.77
2018-03-08T23:44:42.406Z,84.33
2018-03-08T23:47:10.045Z,84.28
2018-03-08T23:49:37.697Z,85.09
2018-03-08T23:52:05.292Z,84.92
2018-03-08T23:54:33.800Z,85.12
2018-03-08T23:57:01.386Z,85.37
2018-03-08T23:59:29.193Z,85.19
